createdAt,value
2022-10-31T00:04:41.256Z,14.00
2022-10-31T00:09:43.420Z,14.00
2022-10-31T00:14:47.924Z,14.00
2022-10-31T00:19:50.133Z,13.90
2022-10-31T00:24:52.319Z,13.80
2022-10-31T00:29:54.515Z,13.80
2022-10-31T00:34:57.136Z,13.80
2022-10-31T00:39:59.619Z,13.80
2022-10-31T00:45:01.767Z,13.70
2022-10-31T00:50:08.187Z,13.70
2022-10-31T00:55:10.396Z,13.70
2022-10-31T01:00:13.273Z,13.60
2022-10-31T01:05:16.843Z,13.50
2022-10-31T01:10:20.528Z,13.50
2022-10-31T01:15:24.159Z,13.50
2022-10-31T01:20:26.426Z,13.40
2022-10-31T01:25:29.665Z,13.30
2022-10-31T01:30:32.826Z,13.20
2022-10-31T01:35:35.008Z,13.20
2022-10-31T01:40:37.429Z,13.20
2022-10-31T01:45:39.738Z,13.20
2022-10-31T01:50:44.830Z,13.20
2022-10-31T01:55:48.175Z,13.20
2022-10-31T02:00:57.516Z,13.20
2022-10-31T02:06:01.372Z,13.20
2022-10-31T02:11:03.664Z,13.20
2022-10-31T02:16:06.124Z,13.20
2022-10-31T02:21:29.933Z,13.20
2022-10-31T02:26:58.936Z,13.00
2022-10-31T02:32:09.994Z,13.00
2022-10-31T02:37:19.458Z,13.00
2022-10-31T02:42:34.709Z,13.00
2022-10-31T02:47:39.544Z,13.10
2022-10-31T02:52:42.057Z,13.10
2022-10-31T02:57:44.401Z,13.10
2022-10-31T03:03:18.731Z,13.00
2022-10-31T03:08:41.072Z,13.00
2022-10-31T03:13:55.262Z,12.90
2022-10-31T03:19:07.134Z,12.80
2022-10-31T03:24:10.955Z,12.80
2022-10-31T03:29:17.107Z,12.80
2022-10-31T03:34:20.848Z,12.70
2022-10-31T03:39:24.621Z,12.70
2022-10-31T03:44:28.914Z,12.80
2022-10-31T03:49:36.351Z,12.70
2022-10-31T03:54:55.629Z,12.80
2022-10-31T04:00:08.937Z,12.70
2022-10-31T04:05:21.957Z,12.70
2022-10-31T04:10:32.015Z,12.60
2022-10-31T04:15:38.327Z,12.60
2022-10-31T04:20:42.833Z,12.60
2022-10-31T04:25:46.952Z,12.70
2022-10-31T04:30:49.669Z,12.70
2022-10-31T04:35:52.542Z,12.60
2022-10-31T04:40:54.927Z,12.70
2022-10-31T04:46:15.565Z,12.60
2022-10-31T04:51:18.344Z,12.60
2022-10-31T04:56:21.103Z,12.60
2022-10-31T05:01:29.127Z,12.50
2022-10-31T05:06:33.250Z,12.50
2022-10-31T05:11:35.946Z,12.50
2022-10-31T05:16:53.956Z,12.50
2022-10-31T05:22:34.835Z,12.50
2022-10-31T05:27:44.537Z,12.50
2022-10-31T05:32:49.997Z,12.50
2022-10-31T05:38:12.551Z,12.50
2022-10-31T05:43:15.584Z,12.60
2022-10-31T05:48:18.338Z,12.60
2022-10-31T05:53:43.686Z,12.70
2022-10-31T05:58:48.544Z,12.70
2022-10-31T06:03:51.123Z,12.70
2022-10-31T06:08:55.530Z,12.70
2022-10-31T06:13:58.780Z,12.70
2022-10-31T06:19:09.225Z,12.70
2022-10-31T06:24:12.133Z,12.70
2022-10-31T06:29:38.537Z,12.70
2022-10-31T06:34:44.422Z,12.70
2022-10-31T06:39:46.938Z,12.70
2022-10-31T06:44:51.530Z,12.70
2022-10-31T06:50:16.601Z,12.70
2022-10-31T06:55:23.746Z,12.70
2022-10-31T07:00:29.205Z,12.80
2022-10-31T07:05:40.952Z,12.80
2022-10-31T07:10:44.444Z,12.80
2022-10-31T07:15:46.873Z,12.80
2022-10-31T07:20:51.101Z,12.90
2022-10-31T07:25:59.479Z,13.00
2022-10-31T07:31:08.017Z,13.10
2022-10-31T07:36:10.678Z,13.10
2022-10-31T07:41:16.908Z,13.00
2022-10-31T07:46:22.731Z,13.10
2022-10-31T07:52:00.655Z,13.00
2022-10-31T07:57:25.116Z,13.10
2022-10-31T08:02:28.228Z,13.20
2022-10-31T08:07:48.974Z,13.20
2022-10-31T08:12:57.855Z,13.30
2022-10-31T08:18:00.558Z,13.40
2022-10-31T08:23:06.056Z,13.50
2022-10-31T08:28:17.888Z,13.60
2022-10-31T08:33:22.694Z,13.70
2022-10-31T08:38:51.298Z,13.90
2022-10-31T08:43:53.991Z,14.00
2022-10-31T08:48:59.986Z,13.90
2022-10-31T08:54:11.673Z,13.80
2022-10-31T08:59:32.124Z,13.80
2022-10-31T09:04:58.642Z,14.10
2022-10-31T09:10:14.276Z,14.70
2022-10-31T09:15:19.804Z,15.00
2022-10-31T09:20:38.633Z,15.20
2022-10-31T09:25:50.006Z,15.30
2022-10-31T09:31:11.510Z,15.60
2022-10-31T09:36:51.500Z,15.70
2022-10-31T09:42:15.995Z,15.90
2022-10-31T09:53:45.478Z,16.00
2022-10-31T09:59:41.874Z,15.90
2022-10-31T10:05:06.393Z,15.90
2022-10-31T10:10:22.481Z,15.80
2022-10-31T10:16:13.579Z,15.60
2022-10-31T10:21:39.049Z,15.30
2022-10-31T10:27:15.804Z,15.20
2022-10-31T10:32:28.506Z,15.30
2022-10-31T10:37:42.903Z,15.40
2022-10-31T10:43:18.525Z,15.70
2022-10-31T11:01:04.514Z,16.00
2022-10-31T11:07:45.637Z,16.00
2022-10-31T11:14:48.096Z,15.90
2022-10-31T11:57:41.079Z,16.80
2022-10-31T12:03:23.123Z,16.90
2022-10-31T12:08:28.917Z,17.00
2022-10-31T12:14:03.623Z,16.90
2022-10-31T12:19:34.260Z,16.90
2022-10-31T12:31:53.168Z,16.60
2022-10-31T13:04:16.172Z,16.30
2022-10-31T13:21:39.215Z,16.20
2022-10-31T13:28:24.813Z,16.30
2022-10-31T13:41:45.476Z,16.40
2022-10-31T13:48:02.060Z,16.30
2022-10-31T14:07:38.388Z,16.20
2022-10-31T14:13:28.778Z,16.20
2022-10-31T14:19:30.675Z,16.20
2022-10-31T14:24:45.871Z,16.20
2022-10-31T14:29:53.886Z,16.10
2022-10-31T14:35:08.806Z,16.10
2022-10-31T14:40:44.002Z,16.00
2022-10-31T14:45:47.946Z,15.80
2022-10-31T14:51:04.985Z,15.80
2022-10-31T14:56:12.841Z,15.70
2022-10-31T15:01:30.450Z,15.70
2022-10-31T15:06:45.495Z,15.70
2022-10-31T15:11:49.544Z,15.70
2022-10-31T15:16:54.504Z,15.70
2022-10-31T15:21:58.270Z,15.70
2022-10-31T15:27:04.873Z,15.70
2022-10-31T15:32:21.593Z,15.70
2022-10-31T15:37:32.023Z,15.70
2022-10-31T15:42:41.678Z,15.70
2022-10-31T15:48:06.674Z,15.60
2022-10-31T15:53:41.089Z,15.40
2022-10-31T15:59:07.886Z,15.10
2022-10-31T16:04:14.263Z,14.90
2022-10-31T16:09:24.559Z,14.80
2022-10-31T16:14:30.325Z,14.60
2022-10-31T16:19:37.632Z,14.50
2022-10-31T16:24:48.096Z,14.50
2022-10-31T16:29:50.753Z,14.40
2022-10-31T16:35:17.401Z,14.30
2022-10-31T16:40:24.533Z,14.30
2022-10-31T16:45:30.697Z,14.10
2022-10-31T16:50:34.213Z,14.00
2022-10-31T16:56:02.455Z,13.90
2022-10-31T17:01:09.145Z,13.90
2022-10-31T17:06:15.339Z,13.80
2022-10-31T17:11:23.143Z,13.80
2022-10-31T17:16:31.650Z,13.70
2022-10-31T17:21:33.943Z,13.70
2022-10-31T17:26:36.093Z,13.80
2022-10-31T17:31:41.421Z,13.80
2022-10-31T17:37:07.790Z,13.80
2022-10-31T17:42:19.130Z,13.80
2022-10-31T17:47:35.660Z,13.80
2022-10-31T17:52:38.335Z,13.80
2022-10-31T17:57:46.792Z,13.60
2022-10-31T18:02:49.625Z,13.60
2022-10-31T18:07:52.084Z,13.60
2022-10-31T18:12:56.742Z,13.60
2022-10-31T18:18:10.759Z,13.50
2022-10-31T18:23:15.418Z,13.20
2022-10-31T18:28:21.202Z,12.80
2022-10-31T18:33:24.227Z,12.70
2022-10-31T18:38:28.446Z,12.60
2022-10-31T18:43:32.574Z,12.50
2022-10-31T18:48:42.920Z,12.50
2022-10-31T18:53:59.915Z,12.50
2022-10-31T18:59:15.689Z,12.40
2022-10-31T19:09:53.118Z,12.30
2022-10-31T19:15:37.157Z,12.20
2022-10-31T19:27:05.012Z,12.30
2022-10-31T19:32:11.009Z,12.20
2022-10-31T19:37:21.762Z,12.20
2022-10-31T19:42:35.428Z,12.10
2022-10-31T19:47:59.913Z,12.20
2022-10-31T19:53:02.634Z,12.30
2022-10-31T19:58:07.743Z,12.20
2022-10-31T20:03:13.891Z,12.30
2022-10-31T20:09:13.774Z,12.40
2022-10-31T20:14:22.349Z,12.30
2022-10-31T20:19:48.661Z,12.30
2022-10-31T20:30:35.433Z,12.30
2022-10-31T20:41:23.188Z,12.20
2022-10-31T20:52:01.637Z,12.30
2022-10-31T20:57:04.527Z,12.20
2022-10-31T21:02:15.157Z,12.10
2022-10-31T21:13:07.658Z,12.10
2022-10-31T21:25:07.880Z,12.10
2022-10-31T21:30:31.210Z,11.80
2022-10-31T21:36:08.988Z,11.80
2022-10-31T21:41:17.477Z,11.90
2022-10-31T21:47:02.320Z,11.80
2022-10-31T21:52:30.337Z,11.80
2022-10-31T22:04:07.407Z,11.90
2022-10-31T22:15:54.701Z,11.90
2022-10-31T22:21:43.305Z,12.00
2022-10-31T22:27:05.764Z,12.10
2022-10-31T22:43:14.136Z,12.20
2022-10-31T22:48:51.998Z,12.20
2022-10-31T22:54:05.594Z,12.10
2022-10-31T22:59:15.015Z,12.10
2022-10-31T23:05:10.120Z,12.10
2022-10-31T23:10:17.296Z,12.00
2022-10-31T23:15:23.683Z,11.90
2022-10-31T23:20:31.383Z,11.80
2022-10-31T23:31:56.645Z,11.80
2022-10-31T23:37:04.451Z,11.80
2022-10-31T23:42:20.332Z,11.90
2022-10-31T23:47:25.260Z,11.80
2022-10-31T23:58:36.807Z,11.90
